createdAt,value
2023-02-11T00:00:21.998Z,96657.34
2023-02-11T00:02:48.635Z,96643.03
2023-02-11T00:05:15.402Z,96627.75
2023-02-11T00:07:42.139Z,96634.66
2023-02-11T00:10:09.383Z,96644.34
2023-02-11T00:12:37.459Z,96672.25
2023-02-11T00:15:06.059Z,96661.88
2023-02-11T00:17:32.888Z,96647.63
2023-02-11T00:19:59.549Z,96678.25
2023-02-11T00:22:26.488Z,96662.47
2023-02-11T00:24:53.114Z,96629.97
2023-02-11T00:27:19.981Z,96658.88
2023-02-11T00:29:46.632Z,96645.31
2023-02-11T00:32:13.304Z,96669.88
2023-02-11T00:34:39.982Z,96673.44
2023-02-11T00:37:06.635Z,96652.06
2023-02-11T00:39:33.231Z,96650.69
2023-02-11T00:41:59.844Z,96645.13
2023-02-11T00:44:26.523Z,96643.88
2023-02-11T00:46:53.116Z,96630.78
2023-02-11T00:49:19.702Z,96661.69
2023-02-11T00:51:46.355Z,96657.47
2023-02-11T00:54:13.280Z,96637.53
2023-02-11T00:56:39.901Z,96648.41
2023-02-11T00:59:06.529Z,96633.91
2023-02-11T01:01:33.256Z,96645.16
2023-02-11T01:04:00.145Z,96631.16
2023-02-11T01:06:26.768Z,96654.50
2023-02-11T01:08:53.392Z,96653.91
2023-02-11T01:11:21.275Z,96641.72
2023-02-11T01:13:49.931Z,96650.97
2023-02-11T01:16:17.809Z,96651.25
2023-02-11T01:18:46.163Z,96653.66
2023-02-11T01:21:12.845Z,96656.16
2023-02-11T01:23:39.417Z,96643.16
2023-02-11T01:26:06.697Z,96624.13
2023-02-11T01:28:33.729Z,96638.97
2023-02-11T01:31:02.290Z,96621.81
2023-02-11T01:33:29.117Z,96618.72
2023-02-11T01:35:55.840Z,96647.28
2023-02-11T01:38:25.040Z,96636.19
2023-02-11T01:40:56.413Z,96637.78
2023-02-11T01:43:24.793Z,96597.72
2023-02-11T01:46:00.238Z,96632.97
2023-02-11T01:48:34.639Z,96610.19
2023-02-11T01:51:16.646Z,96626.88
2023-02-11T01:54:04.460Z,96627.97
2023-02-11T01:56:50.070Z,96613.41
2023-02-11T01:59:32.232Z,96599.91
2023-02-11T02:02:03.553Z,96637.81
2023-02-11T02:04:36.017Z,96633.00
2023-02-11T02:07:08.901Z,96627.97
2023-02-11T02:09:42.015Z,96624.72
2023-02-11T02:12:08.780Z,96639.66
2023-02-11T02:14:39.664Z,96616.63
2023-02-11T02:17:06.997Z,96628.63
2023-02-11T02:19:39.956Z,96627.47
2023-02-11T02:22:34.947Z,96627.22
2023-02-11T02:25:29.400Z,96625.16
2023-02-11T02:28:08.205Z,96627.69
2023-02-11T02:30:53.723Z,96624.81
2023-02-11T02:33:25.371Z,96616.59
2023-02-11T02:35:57.791Z,96628.16
2023-02-11T02:38:39.333Z,96608.31
2023-02-11T02:41:12.998Z,96601.47
2023-02-11T02:43:43.824Z,96628.34
2023-02-11T02:46:11.721Z,96625.34
2023-02-11T02:48:38.759Z,96628.00
2023-02-11T02:51:08.343Z,96625.34
2023-02-11T02:53:56.093Z,96624.38
2023-02-11T02:56:35.756Z,96625.03
2023-02-11T02:59:11.394Z,96618.31
2023-02-11T03:01:56.770Z,96626.75
2023-02-11T03:05:04.378Z,96602.41
2023-02-11T03:07:58.903Z,96607.56
2023-02-11T03:10:31.112Z,96618.97
2023-02-11T03:12:58.764Z,96614.59
2023-02-11T03:15:28.541Z,96603.03
2023-02-11T03:17:58.810Z,96595.38
2023-02-11T03:20:27.328Z,96623.50
2023-02-11T03:23:15.783Z,96611.31
2023-02-11T03:25:50.689Z,96563.41
2023-02-11T03:28:23.347Z,96627.06
2023-02-11T03:30:57.036Z,96600.38
2023-02-11T03:33:38.946Z,96605.53
2023-02-11T03:36:15.224Z,96593.97
2023-02-11T03:38:54.142Z,96620.50
2023-02-11T03:41:24.172Z,96612.22
2023-02-11T03:43:54.584Z,96612.09
2023-02-11T03:46:28.155Z,96615.97
2023-02-11T03:48:59.294Z,96606.13
2023-02-11T03:51:28.496Z,96614.56
2023-02-11T03:53:58.573Z,96631.28
2023-02-11T03:56:29.137Z,96608.47
2023-02-11T03:58:56.062Z,96602.25
2023-02-11T04:01:22.955Z,96628.78
2023-02-11T04:03:49.837Z,96625.50
2023-02-11T04:06:16.522Z,96618.16
2023-02-11T04:08:43.159Z,96586.00
2023-02-11T04:11:09.756Z,96597.41
2023-02-11T04:13:36.391Z,96611.75
2023-02-11T04:16:03.230Z,96595.38
2023-02-11T04:18:29.926Z,96583.66
2023-02-11T04:20:56.634Z,96618.16
2023-02-11T04:23:23.288Z,96576.34
2023-02-11T04:25:50.596Z,96594.59
2023-02-11T04:28:17.389Z,96606.13
2023-02-11T04:30:44.015Z,96607.88
2023-02-11T04:33:10.628Z,96604.72
2023-02-11T04:35:37.289Z,96609.25
2023-02-11T04:38:03.881Z,96595.84
2023-02-11T04:40:30.629Z,96609.91
2023-02-11T04:42:57.331Z,96607.25
2023-02-11T04:45:24.217Z,96583.03
2023-02-11T04:47:50.925Z,96596.47
2023-02-11T04:50:17.958Z,96574.16
2023-02-11T04:52:44.597Z,96603.03
2023-02-11T04:55:11.703Z,96612.88
2023-02-11T04:57:38.415Z,96602.44
2023-02-11T05:00:06.024Z,96598.66
2023-02-11T05:02:32.608Z,96584.63
2023-02-11T05:04:59.210Z,96601.00
2023-02-11T05:07:25.803Z,96599.44
2023-02-11T05:09:52.411Z,96600.69
2023-02-11T05:12:19.016Z,96569.78
2023-02-11T05:14:45.712Z,96591.47
2023-02-11T05:17:12.448Z,96573.38
2023-02-11T05:19:39.118Z,96584.09
2023-02-11T05:22:05.734Z,96577.41
2023-02-11T05:24:32.682Z,96595.03
2023-02-11T05:26:59.998Z,96600.16
2023-02-11T05:29:26.639Z,96595.81
2023-02-11T05:31:53.643Z,96608.50
2023-02-11T05:34:20.352Z,96575.53
2023-02-11T05:36:47.007Z,96534.81
2023-02-11T05:39:13.631Z,96565.72
2023-02-11T05:41:40.218Z,96565.28
2023-02-11T05:44:06.804Z,96576.34
2023-02-11T05:46:33.488Z,96557.91
2023-02-11T05:49:00.269Z,96606.78
2023-02-11T05:51:28.008Z,96606.00
2023-02-11T05:53:54.693Z,96588.31
2023-02-11T05:56:21.386Z,96495.47
2023-02-11T05:58:48.048Z,96518.75
2023-02-11T06:01:14.722Z,96613.00
2023-02-11T06:03:41.476Z,96608.28
2023-02-11T06:06:12.604Z,96495.81
2023-02-11T06:08:39.735Z,96589.63
2023-02-11T06:11:06.545Z,96625.09
2023-02-11T06:13:33.260Z,96521.22
2023-02-11T06:16:01.016Z,96599.47
2023-02-11T06:18:27.951Z,96592.84
2023-02-11T06:20:54.792Z,96599.78
2023-02-11T06:23:22.132Z,96537.97
2023-02-11T06:25:49.425Z,96598.59
2023-02-11T06:28:16.767Z,96618.84
2023-02-11T06:30:43.577Z,96586.81
2023-02-11T06:33:10.285Z,96629.19
2023-02-11T06:35:39.936Z,96608.63
2023-02-11T06:38:06.537Z,96622.81
2023-02-11T06:40:33.119Z,96579.53
2023-02-11T06:42:59.808Z,96632.59
2023-02-11T06:45:26.481Z,96609.75
2023-02-11T06:47:53.611Z,96630.13
2023-02-11T06:50:20.491Z,96578.63
2023-02-11T06:52:47.134Z,96586.63
2023-02-11T06:55:14.235Z,96630.91
2023-02-11T06:57:41.542Z,96606.03
2023-02-11T07:00:09.392Z,96528.78
2023-02-11T07:02:36.443Z,96495.25
2023-02-11T07:05:03.490Z,96587.41
2023-02-11T07:07:34.132Z,96616.31
2023-02-11T07:10:04.752Z,96566.41
2023-02-11T07:12:32.280Z,96623.72
2023-02-11T07:14:59.151Z,96617.59
2023-02-11T07:17:25.828Z,96609.16
2023-02-11T07:20:00.530Z,96622.16
2023-02-11T07:22:27.544Z,96496.41
2023-02-11T07:24:54.251Z,96595.75
2023-02-11T07:27:20.864Z,96611.88
2023-02-11T07:29:48.969Z,96596.16
2023-02-11T07:32:15.748Z,96591.31
2023-02-11T07:34:42.572Z,96614.03
2023-02-11T07:39:52.045Z,96571.22
2023-02-11T07:42:19.334Z,96538.56
2023-02-11T07:44:49.255Z,96509.88
2023-02-11T07:47:17.052Z,96587.47
2023-02-11T07:49:43.707Z,96593.59
2023-02-11T07:52:10.330Z,96589.25
2023-02-11T07:54:37.134Z,96550.69
2023-02-11T07:57:03.925Z,96584.97
2023-02-11T07:59:30.574Z,96586.31
2023-02-11T08:01:57.551Z,96553.97
2023-02-11T08:04:24.257Z,96591.28
2023-02-11T08:06:52.892Z,96547.63
2023-02-11T08:09:19.542Z,96557.84
2023-02-11T08:11:46.192Z,96579.19
2023-02-11T08:14:13.022Z,96560.56
2023-02-11T08:16:40.131Z,96587.78
2023-02-11T08:19:11.749Z,96583.44
2023-02-11T08:21:39.557Z,96579.16
2023-02-11T08:24:13.144Z,96581.19
2023-02-11T08:26:42.839Z,96535.56
2023-02-11T08:29:12.228Z,96555.41
2023-02-11T08:31:41.521Z,96519.69
2023-02-11T08:34:10.026Z,96539.38
2023-02-11T08:36:38.217Z,96578.75
2023-02-11T08:39:18.626Z,96555.94
2023-02-11T08:41:49.073Z,96507.59
2023-02-11T08:44:16.626Z,96579.22
2023-02-11T08:46:43.331Z,96574.22
2023-02-11T08:49:10.203Z,96577.53
2023-02-11T08:51:37.253Z,96524.28
2023-02-11T08:54:04.580Z,96583.13
2023-02-11T08:56:33.255Z,96534.38
2023-02-11T08:58:59.919Z,96477.09
2023-02-11T09:01:29.721Z,96515.84
2023-02-11T09:03:58.445Z,96565.13
2023-02-11T09:06:26.884Z,96569.91
2023-02-11T09:08:57.805Z,96571.50
2023-02-11T09:11:30.754Z,96551.75
2023-02-11T09:13:57.659Z,96459.72
2023-02-11T09:16:27.305Z,96568.78
2023-02-11T09:18:57.413Z,96562.69
2023-02-11T09:21:24.130Z,96537.38
2023-02-11T09:23:51.084Z,96551.78
2023-02-11T09:26:23.692Z,96547.91
2023-02-11T09:28:51.542Z,96554.25
2023-02-11T09:31:21.417Z,96541.91
2023-02-11T09:33:50.461Z,96550.78
2023-02-11T09:36:20.475Z,96547.25
2023-02-11T09:38:48.319Z,96552.03
2023-02-11T09:41:24.059Z,96542.97
2023-02-11T09:43:59.352Z,96538.66
2023-02-11T09:46:43.230Z,96456.00
2023-02-11T09:49:21.953Z,96455.91
2023-02-11T09:51:53.621Z,96523.31
2023-02-11T09:54:34.272Z,96512.13
2023-02-11T09:57:01.100Z,96509.16
2023-02-11T09:59:28.180Z,96495.56
2023-02-11T10:02:35.568Z,96488.50
2023-02-11T10:05:23.925Z,96494.81
2023-02-11T10:08:16.860Z,96484.69
2023-02-11T10:11:07.462Z,96471.50
2023-02-11T10:13:48.331Z,96480.41
2023-02-11T10:16:55.524Z,96414.09
2023-02-11T10:19:42.835Z,96445.03
2023-02-11T10:22:17.508Z,96457.13
2023-02-11T10:24:53.655Z,96438.38
2023-02-11T10:27:29.179Z,96450.09
2023-02-11T10:30:07.301Z,96448.72
2023-02-11T10:32:49.770Z,96409.69
2023-02-11T10:35:22.000Z,96422.63
2023-02-11T10:37:49.223Z,96411.09
2023-02-11T10:40:28.082Z,96416.63
2023-02-11T10:43:01.434Z,96402.69
2023-02-11T10:45:35.226Z,96373.56
2023-02-11T10:48:06.356Z,96383.69
2023-02-11T10:50:35.151Z,96377.72
2023-02-11T10:53:20.971Z,96384.53
2023-02-11T10:55:54.142Z,96378.59
2023-02-11T10:58:30.847Z,96349.06
2023-02-11T11:01:00.057Z,96372.59
2023-02-11T11:03:32.099Z,96358.31
2023-02-11T11:06:02.052Z,96348.44
2023-02-11T11:08:40.810Z,96359.41
2023-02-11T11:11:13.487Z,96339.69
2023-02-11T11:14:03.302Z,96348.94
2023-02-11T11:16:35.153Z,96339.47
2023-02-11T11:19:08.536Z,96349.31
2023-02-11T11:21:41.957Z,96355.63
2023-02-11T11:24:18.920Z,96285.31
2023-02-11T11:26:48.755Z,96353.53
2023-02-11T11:29:18.412Z,96339.25
2023-02-11T11:32:04.632Z,96333.91
2023-02-11T11:34:43.198Z,96306.59
2023-02-11T11:37:31.413Z,96324.88
2023-02-11T11:40:18.204Z,96327.91
2023-02-11T11:42:45.271Z,96334.94
2023-02-11T11:45:27.089Z,96324.16
2023-02-11T11:48:12.516Z,96274.00
2023-02-11T11:51:00.322Z,96179.34
2023-02-11T11:53:55.623Z,96316.00
2023-02-11T12:13:29.021Z,96155.38
2023-02-11T12:16:07.872Z,96238.66
2023-02-11T12:19:14.405Z,96173.53
2023-02-11T12:22:20.921Z,96157.03
2023-02-11T12:24:56.908Z,96257.94
2023-02-11T12:27:45.616Z,96251.78
2023-02-11T12:30:51.365Z,96250.22
2023-02-11T12:33:38.588Z,96248.66
2023-02-11T12:36:27.625Z,96139.50
2023-02-11T12:42:10.788Z,96254.44
2023-02-11T12:44:58.246Z,96186.63
2023-02-11T12:47:43.741Z,96243.31
2023-02-11T12:50:34.920Z,96244.44
2023-02-11T12:53:23.095Z,96132.31
2023-02-11T12:55:56.152Z,96254.88
2023-02-11T12:58:42.895Z,96170.50
2023-02-11T13:01:26.095Z,96099.66
2023-02-11T13:04:14.244Z,96209.38
2023-02-11T13:06:50.180Z,96136.19
2023-02-11T13:09:33.094Z,96148.94
2023-02-11T13:12:26.492Z,96170.50
2023-02-11T13:14:59.344Z,96126.97
2023-02-11T13:23:06.853Z,96177.41
2023-02-11T13:26:05.947Z,96204.41
2023-02-11T13:28:42.466Z,96153.19
2023-02-11T13:31:27.880Z,96186.66
2023-02-11T13:33:59.083Z,96177.41
2023-02-11T13:39:09.340Z,96063.47
2023-02-11T13:41:40.572Z,96150.44
2023-02-11T13:44:10.211Z,96192.03
2023-02-11T13:46:57.298Z,96192.75
2023-02-11T13:49:51.757Z,96176.16
2023-02-11T13:52:34.508Z,96151.22
2023-02-11T13:55:25.183Z,96175.75
2023-02-11T13:58:07.106Z,96172.97
2023-02-11T14:00:33.677Z,96183.31
2023-02-11T14:03:31.030Z,96169.06
2023-02-11T14:06:30.576Z,96175.56
2023-02-11T14:09:09.453Z,96181.81
2023-02-11T14:11:47.138Z,96173.41
2023-02-11T14:15:02.865Z,96169.53
2023-02-11T14:17:33.530Z,96156.50
2023-02-11T14:20:04.632Z,96139.25
2023-02-11T14:22:44.245Z,96157.00
2023-02-11T14:25:22.988Z,96132.38
2023-02-11T14:28:08.105Z,96157.03
2023-02-11T14:30:52.188Z,96152.41
2023-02-11T14:33:47.890Z,96145.44
2023-02-11T14:36:29.796Z,96162.78
2023-02-11T14:39:11.597Z,96148.91
2023-02-11T14:41:47.290Z,96161.63
2023-02-11T14:44:30.117Z,96172.41
2023-02-11T14:46:58.088Z,96167.78
2023-02-11T14:49:39.539Z,96145.44
2023-02-11T14:52:14.695Z,96167.00
2023-02-11T14:54:44.653Z,96151.63
2023-02-11T14:57:18.359Z,96158.91
2023-02-11T15:00:03.575Z,96156.22
2023-02-11T15:02:35.374Z,96140.78
2023-02-11T15:05:29.021Z,96144.66
2023-02-11T15:08:00.032Z,96145.66
2023-02-11T15:10:41.921Z,96152.03
2023-02-11T15:13:13.974Z,96134.84
2023-02-11T15:15:40.966Z,96135.13
2023-02-11T15:18:09.713Z,96130.53
2023-02-11T15:20:37.065Z,96095.88
2023-02-11T15:23:08.593Z,96133.31
2023-02-11T15:25:43.034Z,96134.31
2023-02-11T15:28:30.893Z,96130.31
2023-02-11T15:31:00.469Z,96121.22
2023-02-11T15:33:30.257Z,96107.34
2023-02-11T15:35:57.747Z,96123.91
2023-02-11T15:38:24.660Z,96142.72
2023-02-11T15:40:58.328Z,96134.97
2023-02-11T15:43:25.425Z,96111.44
2023-02-11T15:45:51.921Z,96141.03
2023-02-11T15:48:47.228Z,96116.78
2023-02-11T15:51:30.113Z,96134.72
2023-02-11T15:53:59.689Z,96131.97
2023-02-11T15:56:30.700Z,96124.88
2023-02-11T15:59:00.738Z,96132.19
2023-02-11T16:01:36.570Z,96113.97
2023-02-11T16:04:04.976Z,96078.38
2023-02-11T16:06:42.795Z,96144.94
2023-02-11T16:09:10.228Z,96139.81
2023-02-11T16:11:45.961Z,96149.38
2023-02-11T16:14:42.212Z,96141.31
2023-02-11T16:17:13.264Z,96140.50
2023-02-11T16:19:47.935Z,96136.00
2023-02-11T16:22:19.282Z,96145.94
2023-02-11T16:24:48.615Z,96153.19
2023-02-11T16:27:31.271Z,96136.53
2023-02-11T16:29:58.806Z,96140.84
2023-02-11T16:32:29.834Z,96148.91
2023-02-11T16:34:59.440Z,96130.78
2023-02-11T16:37:26.372Z,96130.63
2023-02-11T16:39:58.108Z,96142.66
2023-02-11T16:42:25.254Z,96141.84
2023-02-11T16:44:52.040Z,96127.28
2023-02-11T16:47:28.699Z,96116.72
2023-02-11T16:49:56.209Z,96125.56
2023-02-11T16:52:24.407Z,96138.28
2023-02-11T16:54:51.268Z,96135.63
2023-02-11T16:57:23.230Z,96145.28
2023-02-11T16:59:49.847Z,96152.56
2023-02-11T17:02:28.525Z,96146.31
2023-02-11T17:04:58.172Z,96148.16
2023-02-11T17:07:24.820Z,96114.56
2023-02-11T17:09:52.301Z,96127.53
2023-02-11T17:12:19.737Z,96139.41
2023-02-11T17:14:46.400Z,96139.75
2023-02-11T17:17:13.494Z,96134.44
2023-02-11T17:19:40.153Z,96134.88
2023-02-11T17:22:06.933Z,96131.06
2023-02-11T17:24:33.532Z,96101.59
2023-02-11T17:27:00.241Z,96138.94
2023-02-11T17:29:27.196Z,96143.22
2023-02-11T17:31:54.047Z,96148.84
2023-02-11T17:34:22.337Z,96128.03
2023-02-11T17:36:49.214Z,96128.75
2023-02-11T17:39:15.931Z,96132.75
2023-02-11T17:41:42.772Z,96158.16
2023-02-11T17:44:12.531Z,96157.03
2023-02-11T17:46:39.172Z,96158.13
2023-02-11T17:49:05.866Z,96157.66
2023-02-11T17:51:37.765Z,96160.63
2023-02-11T17:54:11.918Z,96155.53
2023-02-11T17:56:39.210Z,96161.75
2023-02-11T17:59:06.861Z,96160.16
2023-02-11T18:01:34.559Z,96152.69
2023-02-11T18:04:01.699Z,96144.44
2023-02-11T18:06:31.562Z,96170.59
2023-02-11T18:08:59.890Z,96170.81
2023-02-11T18:11:27.946Z,96173.06
2023-02-11T18:13:54.765Z,96166.59
2023-02-11T18:16:23.128Z,96173.94
2023-02-11T18:18:50.581Z,96177.03
2023-02-11T18:21:20.413Z,96169.31
2023-02-11T18:23:47.773Z,96151.22
2023-02-11T18:26:16.978Z,96165.66
2023-02-11T18:28:45.989Z,96119.41
2023-02-11T18:31:14.071Z,96087.19
2023-02-11T18:33:42.235Z,96163.50
2023-02-11T18:36:11.553Z,96137.66
2023-02-11T18:38:38.668Z,96144.22
2023-02-11T18:41:05.721Z,96138.41
2023-02-11T18:43:33.777Z,96137.22
2023-02-11T18:46:02.159Z,96130.13
2023-02-11T18:48:29.066Z,96081.50
2023-02-11T18:50:56.142Z,96113.38
2023-02-11T18:53:24.682Z,96130.88
2023-02-11T18:55:52.662Z,96131.78
2023-02-11T18:58:21.204Z,96132.66
2023-02-11T19:00:49.034Z,96131.50
2023-02-11T19:03:16.077Z,96121.81
2023-02-11T19:05:48.136Z,96135.19
2023-02-11T19:08:15.335Z,96134.84
2023-02-11T19:10:44.515Z,96129.84
2023-02-11T19:13:11.716Z,96121.59
2023-02-11T19:15:43.382Z,96130.56
2023-02-11T19:18:10.748Z,96131.66
2023-02-11T19:20:42.034Z,96120.00
2023-02-11T19:23:09.274Z,96069.56
2023-02-11T19:25:36.245Z,96081.72
2023-02-11T19:28:03.939Z,96054.06
2023-02-11T19:30:30.773Z,96104.38
2023-02-11T19:32:57.793Z,96089.63
2023-02-11T19:35:25.382Z,96097.69
2023-02-11T19:37:52.055Z,96096.25
2023-02-11T19:40:21.270Z,96108.16
2023-02-11T19:42:48.053Z,96105.06
2023-02-11T19:45:14.791Z,96093.06
2023-02-11T19:47:41.518Z,96085.66
2023-02-11T19:50:08.673Z,96087.72
2023-02-11T19:52:38.312Z,96097.34
2023-02-11T19:55:05.209Z,96080.84
2023-02-11T19:57:31.906Z,96089.94
2023-02-11T19:59:58.570Z,96085.94
2023-02-11T20:02:25.264Z,96079.53
2023-02-11T20:04:51.897Z,96080.75
2023-02-11T20:07:18.558Z,96054.22
2023-02-11T20:09:45.183Z,96088.00
2023-02-11T20:12:12.137Z,96084.59
2023-02-11T20:14:38.911Z,96090.69
2023-02-11T20:17:05.584Z,96086.59
2023-02-11T20:19:32.375Z,96076.25
2023-02-11T20:21:58.940Z,96072.78
2023-02-11T20:24:26.178Z,96085.16
2023-02-11T20:26:55.936Z,96079.88
2023-02-11T20:29:24.057Z,96081.69
2023-02-11T20:31:50.948Z,96062.06
2023-02-11T20:34:18.178Z,96066.69
2023-02-11T20:36:52.057Z,96059.84
2023-02-11T20:39:21.761Z,96050.59
2023-02-11T20:41:49.208Z,96062.97
2023-02-11T20:44:16.258Z,96056.63
2023-02-11T20:46:48.087Z,96047.31
2023-02-11T20:49:18.950Z,96051.94
2023-02-11T20:51:46.455Z,96052.28
2023-02-11T20:54:15.500Z,96043.06
2023-02-11T20:56:42.762Z,96048.84
2023-02-11T20:59:09.783Z,96038.75
2023-02-11T21:01:43.002Z,96041.41
2023-02-11T21:04:15.618Z,96033.63
2023-02-11T21:06:44.725Z,96024.75
2023-02-11T21:09:15.016Z,96030.13
2023-02-11T21:11:42.366Z,96018.13
2023-02-11T21:14:10.364Z,96016.56
2023-02-11T21:16:37.250Z,95977.84
2023-02-11T21:19:04.516Z,96014.09
2023-02-11T21:21:31.768Z,96015.66
2023-02-11T21:23:58.699Z,95988.25
2023-02-11T21:26:25.767Z,96001.25
2023-02-11T21:28:52.336Z,96005.75
2023-02-11T21:31:23.062Z,95996.59
2023-02-11T21:33:50.988Z,95997.09
2023-02-11T21:36:17.989Z,95978.84
2023-02-11T21:38:44.926Z,95998.84
2023-02-11T21:41:11.674Z,95979.19
2023-02-11T21:43:38.499Z,95995.19
2023-02-11T21:46:10.771Z,95985.75
2023-02-11T21:48:37.901Z,96002.59
2023-02-11T21:51:25.937Z,95998.19
2023-02-11T21:53:56.381Z,95994.94
2023-02-11T21:56:23.856Z,95994.28
2023-02-11T21:58:53.434Z,96000.78
2023-02-11T22:01:28.979Z,95977.97
2023-02-11T22:03:55.936Z,95993.44
2023-02-11T22:06:30.931Z,95962.56
2023-02-11T22:08:58.064Z,95996.06
2023-02-11T22:11:25.027Z,95995.59
2023-02-11T22:13:56.370Z,95973.56
2023-02-11T22:16:23.941Z,95990.06
2023-02-11T22:18:51.504Z,95970.66
2023-02-11T22:21:20.843Z,96011.47
2023-02-11T22:23:47.983Z,96007.19
2023-02-11T22:26:21.486Z,96009.63
2023-02-11T22:28:48.913Z,96004.69
2023-02-11T22:31:22.276Z,95978.66
2023-02-11T22:33:49.071Z,96002.59
2023-02-11T22:36:19.073Z,96005.03
2023-02-11T22:38:45.794Z,95990.81
2023-02-11T22:41:12.957Z,96004.72
2023-02-11T22:43:41.848Z,95995.63
2023-02-11T22:46:09.427Z,95996.38
2023-02-11T22:48:36.117Z,95996.66
2023-02-11T22:51:11.239Z,95997.66
2023-02-11T22:53:37.897Z,95995.34
2023-02-11T22:56:15.333Z,95987.50
2023-02-11T22:58:42.543Z,95979.78
2023-02-11T23:01:09.216Z,96002.78
2023-02-11T23:03:36.530Z,96011.69
2023-02-11T23:06:03.540Z,95999.09
2023-02-11T23:08:31.642Z,95990.78
2023-02-11T23:11:24.399Z,95990.66
2023-02-11T23:13:52.318Z,95964.00
2023-02-11T23:16:23.648Z,95978.25
2023-02-11T23:18:51.144Z,95972.53
2023-02-11T23:21:23.613Z,95990.66
2023-02-11T23:23:55.161Z,95987.72
2023-02-11T23:26:21.841Z,95972.50
2023-02-11T23:28:48.490Z,95971.06
2023-02-11T23:31:21.852Z,95985.72
2023-02-11T23:33:49.424Z,95972.06
2023-02-11T23:36:18.376Z,95985.56
2023-02-11T23:38:45.562Z,95981.28
2023-02-11T23:41:12.482Z,95974.72
2023-02-11T23:43:39.367Z,95957.91
2023-02-11T23:46:06.674Z,95938.91
2023-02-11T23:48:33.892Z,95974.75
2023-02-11T23:51:00.404Z,95971.16
2023-02-11T23:53:27.142Z,95953.66
2023-02-11T23:55:54.039Z,95970.28
2023-02-11T23:58:20.973Z,95976.41
